createdAt,value
2019-02-06T00:00:45.078Z,-1.96
2019-02-06T00:03:16.498Z,-1.90
2019-02-06T00:05:46.257Z,-1.94
2019-02-06T00:08:16.077Z,-1.96
2019-02-06T00:10:45.912Z,-2.02
2019-02-06T00:13:16.250Z,-2.02
2019-02-06T00:15:46.124Z,-1.95
2019-02-06T00:18:16.096Z,-1.91
2019-02-06T00:20:45.894Z,-1.86
2019-02-06T00:23:17.753Z,-1.91
2019-02-06T00:25:47.531Z,-1.93
2019-02-06T00:28:17.360Z,-1.93
2019-02-06T00:30:48.226Z,-1.97
2019-02-06T00:33:18.025Z,-2.09
2019-02-06T00:35:48.752Z,-2.14
2019-02-06T00:38:18.557Z,-2.14
2019-02-06T00:40:48.249Z,-2.21
2019-02-06T00:43:18.067Z,-2.26
2019-02-06T00:45:48.936Z,-2.30
2019-02-06T00:48:18.766Z,-2.25
2019-02-06T00:50:48.552Z,-2.28
2019-02-06T00:53:18.352Z,-2.25
2019-02-06T00:55:48.612Z,-2.24
2019-02-06T00:58:18.432Z,-2.27
2019-02-06T01:00:48.237Z,-2.35
2019-02-06T01:03:18.845Z,-2.34
2019-02-06T01:06:01.059Z,-2.36
2019-02-06T01:08:30.851Z,-2.34
2019-02-06T01:11:01.022Z,-2.30
2019-02-06T01:13:31.652Z,-2.31
2019-02-06T01:16:01.394Z,-2.33
2019-02-06T01:18:31.209Z,-2.31
2019-02-06T01:21:01.054Z,-2.35
2019-02-06T01:23:31.298Z,-2.36
2019-02-06T01:26:01.561Z,-2.28
2019-02-06T01:28:31.474Z,-2.29
2019-02-06T01:31:13.272Z,-2.35
2019-02-06T01:33:43.074Z,-2.48
2019-02-06T01:36:12.863Z,-2.55
2019-02-06T01:38:43.613Z,-2.59
2019-02-06T01:41:13.403Z,-2.60
2019-02-06T01:43:47.001Z,-2.59
2019-02-06T01:46:16.795Z,-2.66
2019-02-06T01:48:46.596Z,-2.81
2019-02-06T01:51:27.434Z,-2.73
2019-02-06T01:54:00.957Z,-2.67
2019-02-06T01:56:30.736Z,-2.71
2019-02-06T01:59:00.570Z,-2.61
2019-02-06T02:01:30.738Z,-2.58
2019-02-06T02:04:00.534Z,-2.60
2019-02-06T02:06:30.440Z,-2.65
2019-02-06T02:09:08.895Z,-2.66
2019-02-06T02:11:38.685Z,-2.67
2019-02-06T02:14:08.506Z,-2.71
2019-02-06T02:16:47.588Z,-2.79
2019-02-06T02:19:20.745Z,-2.84
2019-02-06T02:21:58.142Z,-2.83
2019-02-06T02:24:38.824Z,-2.81
2019-02-06T02:27:22.675Z,-2.80
2019-02-06T02:30:00.814Z,-2.79
2019-02-06T02:32:30.618Z,-2.89
2019-02-06T02:35:00.588Z,-3.07
2019-02-06T02:37:30.414Z,-3.10
2019-02-06T02:40:00.477Z,-3.07
2019-02-06T02:48:34.107Z,-3.00
2019-02-06T02:51:10.299Z,-2.98
2019-02-06T02:53:51.896Z,-3.00
2019-02-06T02:56:36.878Z,-2.95
2019-02-06T02:59:13.212Z,-2.97
2019-02-06T03:04:58.919Z,-2.98
2019-02-06T03:07:36.829Z,-3.03
2019-02-06T03:16:20.682Z,-3.00
2019-02-06T03:22:08.129Z,-3.05
2019-02-06T03:30:53.873Z,-3.24
2019-02-06T03:33:34.515Z,-3.23
2019-02-06T03:36:40.514Z,-3.21
2019-02-06T03:42:28.123Z,-3.26
2019-02-06T03:48:05.362Z,-3.32
2019-02-06T03:50:58.089Z,-3.32
2019-02-06T03:56:48.525Z,-3.24
2019-02-06T03:59:34.304Z,-3.14
2019-02-06T04:02:19.257Z,-3.14
2019-02-06T04:05:04.561Z,-3.08
2019-02-06T04:13:43.214Z,-3.10
2019-02-06T04:16:16.046Z,-3.08
2019-02-06T04:18:45.944Z,-3.12
2019-02-06T04:21:18.618Z,-3.20
2019-02-06T04:23:54.640Z,-3.32
2019-02-06T04:26:25.039Z,-3.34
2019-02-06T04:28:57.525Z,-3.34
2019-02-06T04:31:28.495Z,-3.34
2019-02-06T04:33:58.588Z,-3.30
2019-02-06T04:36:31.979Z,-3.29
2019-02-06T04:39:05.595Z,-3.28
2019-02-06T04:41:37.472Z,-3.21
2019-02-06T04:44:08.621Z,-3.22
2019-02-06T04:46:44.460Z,-3.22
2019-02-06T04:49:16.826Z,-3.24
2019-02-06T04:51:47.029Z,-3.27
2019-02-06T04:54:19.561Z,-3.27
2019-02-06T04:56:50.375Z,-3.26
2019-02-06T04:59:21.811Z,-3.27
2019-02-06T05:01:51.694Z,-3.29
2019-02-06T05:04:21.543Z,-3.30
2019-02-06T05:06:52.815Z,-3.27
2019-02-06T05:09:24.551Z,-3.26
2019-02-06T05:11:55.984Z,-3.30
2019-02-06T05:14:27.127Z,-3.31
2019-02-06T05:16:58.589Z,-3.31
2019-02-06T05:19:28.454Z,-3.49
2019-02-06T05:22:00.350Z,-3.63
2019-02-06T05:24:30.649Z,-3.68
2019-02-06T05:27:03.265Z,-3.74
2019-02-06T05:29:33.432Z,-3.69
2019-02-06T05:32:06.129Z,-3.62
2019-02-06T05:34:37.090Z,-3.54
2019-02-06T05:37:10.007Z,-3.56
2019-02-06T05:39:42.404Z,-3.60
2019-02-06T05:42:14.852Z,-3.55
2019-02-06T05:44:45.993Z,-3.53
2019-02-06T05:47:15.817Z,-3.51
2019-02-06T05:49:45.474Z,-3.43
2019-02-06T05:52:17.159Z,-3.39
2019-02-06T05:54:48.930Z,-3.45
2019-02-06T05:57:18.750Z,-3.44
2019-02-06T05:59:51.227Z,-3.44
2019-02-06T06:02:26.043Z,-3.51
2019-02-06T06:04:56.102Z,-3.52
2019-02-06T06:07:25.937Z,-3.54
2019-02-06T06:09:55.940Z,-3.55
2019-02-06T06:12:25.791Z,-3.57
2019-02-06T06:14:57.265Z,-3.66
2019-02-06T06:17:27.810Z,-3.70
2019-02-06T06:19:57.627Z,-1.04
2019-02-06T06:22:27.653Z,0.30
2019-02-06T06:24:57.455Z,0.51
2019-02-06T06:27:27.252Z,0.45
2019-02-06T06:29:57.094Z,0.68
2019-02-06T06:32:27.317Z,-0.23
2019-02-06T06:34:57.102Z,-0.87
2019-02-06T06:37:26.907Z,-1.29
2019-02-06T06:39:56.738Z,-1.91
2019-02-06T06:42:30.906Z,-2.22
2019-02-06T06:45:01.148Z,-2.28
2019-02-06T06:47:30.990Z,-2.33
2019-02-06T06:50:00.800Z,-2.26
2019-02-06T06:52:30.612Z,-2.29
2019-02-06T06:55:00.416Z,-2.25
2019-02-06T06:57:30.324Z,-2.25
2019-02-06T07:00:00.502Z,-2.12
2019-02-06T07:02:32.311Z,-2.17
2019-02-06T07:05:02.222Z,-1.98
2019-02-06T07:07:32.021Z,-1.81
2019-02-06T07:10:01.812Z,-1.72
2019-02-06T07:12:31.625Z,0.04
2019-02-06T07:15:01.668Z,-0.24
2019-02-06T07:17:31.450Z,-0.49
2019-02-06T07:20:01.298Z,-0.55
2019-02-06T07:22:31.092Z,-0.35
2019-02-06T07:25:00.945Z,-0.30
2019-02-06T07:27:30.615Z,-0.30
2019-02-06T07:30:00.283Z,-0.10
2019-02-06T07:32:30.434Z,-0.10
2019-02-06T07:35:00.328Z,0.06
2019-02-06T07:37:30.075Z,0.06
2019-02-06T07:39:59.970Z,0.04
2019-02-06T07:42:29.801Z,0.30
2019-02-06T07:45:01.079Z,0.59
2019-02-06T07:47:31.088Z,0.74
2019-02-06T07:50:00.927Z,0.79
2019-02-06T07:52:30.832Z,0.71
2019-02-06T07:55:00.646Z,0.71
2019-02-06T07:57:32.268Z,0.53
2019-02-06T08:00:02.090Z,0.53
2019-02-06T08:02:31.972Z,0.56
2019-02-06T08:05:01.796Z,0.61
2019-02-06T08:07:31.623Z,0.65
2019-02-06T08:10:01.426Z,0.65
2019-02-06T08:12:31.695Z,0.78
2019-02-06T08:15:01.457Z,0.92
2019-02-06T08:17:31.261Z,0.96
2019-02-06T08:20:01.056Z,1.26
2019-02-06T08:22:30.880Z,1.26
2019-02-06T08:25:00.683Z,1.38
2019-02-06T08:27:31.843Z,1.42
2019-02-06T08:30:01.709Z,1.77
2019-02-06T08:32:31.474Z,1.86
2019-02-06T08:35:01.283Z,1.80
2019-02-06T08:37:31.054Z,2.03
2019-02-06T08:40:02.667Z,2.37
2019-02-06T08:42:32.447Z,2.37
2019-02-06T08:45:02.242Z,2.58
2019-02-06T08:47:32.061Z,2.76
2019-02-06T08:50:01.891Z,3.06
2019-02-06T08:52:31.659Z,3.23
2019-02-06T08:55:01.444Z,3.25
2019-02-06T08:57:31.361Z,3.73
2019-02-06T09:00:01.298Z,4.16
2019-02-06T09:02:31.879Z,4.50
2019-02-06T09:05:01.683Z,4.78
2019-02-06T09:07:33.352Z,4.93
2019-02-06T09:10:04.250Z,5.09
2019-02-06T09:12:34.002Z,5.26
2019-02-06T09:15:04.680Z,5.38
2019-02-06T09:17:34.533Z,5.55
2019-02-06T09:20:07.365Z,5.64
2019-02-06T09:22:37.214Z,5.78
2019-02-06T09:25:10.406Z,5.25
2019-02-06T09:27:40.615Z,5.38
2019-02-06T09:30:28.689Z,5.54
2019-02-06T09:32:58.547Z,5.57
2019-02-06T09:35:28.371Z,5.72
2019-02-06T09:37:58.276Z,5.84
2019-02-06T09:40:29.761Z,5.95
2019-02-06T09:42:59.527Z,5.95
2019-02-06T09:45:29.667Z,6.03
2019-02-06T09:48:00.833Z,6.01
2019-02-06T09:50:32.823Z,6.07
2019-02-06T09:53:03.240Z,6.06
2019-02-06T09:55:33.025Z,6.08
2019-02-06T09:58:03.081Z,6.24
2019-02-06T10:00:37.754Z,6.01
2019-02-06T10:03:08.052Z,5.57
2019-02-06T10:05:37.909Z,5.82
2019-02-06T10:08:07.722Z,6.05
2019-02-06T10:10:37.338Z,6.23
2019-02-06T10:13:07.240Z,6.35
2019-02-06T10:15:38.850Z,6.45
2019-02-06T10:18:11.037Z,6.12
2019-02-06T10:20:43.666Z,6.11
2019-02-06T10:23:13.615Z,6.30
2019-02-06T10:25:43.406Z,6.39
2019-02-06T10:28:14.121Z,6.46
2019-02-06T10:30:46.409Z,6.59
2019-02-06T10:33:18.902Z,6.68
2019-02-06T10:35:51.894Z,6.70
2019-02-06T10:38:21.193Z,6.67
2019-02-06T10:40:51.012Z,6.59
2019-02-06T10:43:31.683Z,6.62
2019-02-06T10:45:53.892Z,6.52
2019-02-06T10:48:24.355Z,6.48
2019-02-06T10:50:54.310Z,6.40
2019-02-06T10:53:24.959Z,6.27
2019-02-06T10:55:55.100Z,6.28
2019-02-06T10:58:24.910Z,6.27
2019-02-06T11:00:57.513Z,6.24
2019-02-06T11:03:28.085Z,6.20
2019-02-06T11:05:57.911Z,6.13
2019-02-06T11:08:27.704Z,6.08
2019-02-06T11:10:58.190Z,6.06
2019-02-06T11:13:28.009Z,6.00
2019-02-06T11:15:57.857Z,5.84
2019-02-06T11:18:29.451Z,5.86
2019-02-06T11:20:59.198Z,5.89
2019-02-06T11:23:28.964Z,5.93
2019-02-06T11:25:59.344Z,5.95
2019-02-06T11:28:30.293Z,5.94
2019-02-06T11:31:00.223Z,5.84
2019-02-06T11:33:30.021Z,5.82
2019-02-06T11:36:00.326Z,5.84
2019-02-06T11:38:31.064Z,5.84
2019-02-06T11:41:00.889Z,5.87
2019-02-06T11:43:32.164Z,5.88
2019-02-06T11:46:03.185Z,5.79
2019-02-06T11:48:32.990Z,5.79
2019-02-06T11:51:04.335Z,5.83
2019-02-06T11:53:34.414Z,5.85
2019-02-06T11:56:04.822Z,5.83
2019-02-06T11:58:34.956Z,5.81
2019-02-06T12:01:16.666Z,5.82
2019-02-06T12:03:47.276Z,5.80
2019-02-06T12:06:18.678Z,5.79
2019-02-06T12:08:50.629Z,5.76
2019-02-06T12:11:21.254Z,5.74
2019-02-06T12:13:51.139Z,5.68
2019-02-06T12:16:20.989Z,5.68
2019-02-06T12:18:51.966Z,5.68
2019-02-06T12:21:23.342Z,5.65
2019-02-06T12:23:54.166Z,5.65
2019-02-06T12:26:23.947Z,5.67
2019-02-06T12:28:53.959Z,5.64
2019-02-06T12:31:25.753Z,5.59
2019-02-06T12:33:57.169Z,5.61
2019-02-06T12:36:27.060Z,5.58
2019-02-06T12:38:56.844Z,5.56
2019-02-06T12:41:28.364Z,5.60
2019-02-06T12:43:58.134Z,5.55
2019-02-06T12:46:27.905Z,5.56
2019-02-06T12:48:57.713Z,5.55
2019-02-06T12:51:28.550Z,5.51
2019-02-06T12:53:58.322Z,5.48
2019-02-06T12:56:28.115Z,5.47
2019-02-06T12:58:57.904Z,5.43
2019-02-06T13:01:27.714Z,5.43
2019-02-06T13:03:57.459Z,5.54
2019-02-06T13:06:27.240Z,5.47
2019-02-06T13:08:57.026Z,5.45
2019-02-06T13:11:26.809Z,5.46
2019-02-06T13:13:56.768Z,5.44
2019-02-06T13:16:26.598Z,5.43
2019-02-06T13:18:56.388Z,5.43
2019-02-06T13:21:26.187Z,5.41
2019-02-06T13:23:55.966Z,5.41
2019-02-06T13:26:25.801Z,5.41
2019-02-06T13:28:55.886Z,5.41
2019-02-06T13:31:25.690Z,5.44
2019-02-06T13:33:55.508Z,5.42
2019-02-06T13:36:25.306Z,5.38
2019-02-06T13:38:55.918Z,5.38
2019-02-06T13:41:25.720Z,5.36
2019-02-06T13:43:55.486Z,5.32
2019-02-06T13:46:25.273Z,5.32
2019-02-06T13:48:55.332Z,5.32
2019-02-06T13:51:25.346Z,5.33
2019-02-06T13:53:55.159Z,5.29
2019-02-06T13:56:24.933Z,5.33
2019-02-06T13:58:54.691Z,5.28
2019-02-06T14:01:26.194Z,5.23
2019-02-06T14:03:56.173Z,5.22
2019-02-06T14:06:26.222Z,5.19
2019-02-06T14:08:56.002Z,4.64
2019-02-06T14:11:25.831Z,5.27
2019-02-06T14:13:55.655Z,5.27
2019-02-06T14:16:27.181Z,5.22
2019-02-06T14:18:57.106Z,5.19
2019-02-06T14:21:27.017Z,5.17
2019-02-06T14:24:00.613Z,5.12
2019-02-06T14:26:36.335Z,5.10
2019-02-06T14:29:24.467Z,5.14
2019-02-06T14:32:27.987Z,5.10
2019-02-06T14:35:00.823Z,5.09
2019-02-06T14:37:37.736Z,5.06
2019-02-06T14:40:19.747Z,5.03
2019-02-06T14:43:13.234Z,5.00
2019-02-06T14:45:57.596Z,4.98
2019-02-06T14:48:45.328Z,5.04
2019-02-06T14:51:27.108Z,4.94
2019-02-06T14:54:15.150Z,4.90
2019-02-06T14:56:57.660Z,4.91
2019-02-06T14:59:35.936Z,4.86
2019-02-06T15:02:28.102Z,4.85
2019-02-06T15:05:20.488Z,4.83
2019-02-06T15:07:57.074Z,4.79
2019-02-06T15:10:38.712Z,4.79
2019-02-06T15:13:29.548Z,4.75
2019-02-06T15:16:14.158Z,4.70
2019-02-06T15:18:50.079Z,4.69
2019-02-06T15:21:38.054Z,4.63
2019-02-06T15:24:29.309Z,4.57
2019-02-06T15:27:26.317Z,4.50
2019-02-06T15:30:02.110Z,4.46
2019-02-06T15:32:34.906Z,4.42
2019-02-06T15:35:23.044Z,4.34
2019-02-06T15:37:56.233Z,4.27
2019-02-06T15:40:34.903Z,4.20
2019-02-06T15:43:29.669Z,4.16
2019-02-06T15:46:17.514Z,4.09
2019-02-06T15:49:09.748Z,3.99
2019-02-06T15:51:48.337Z,3.93
2019-02-06T15:54:32.717Z,3.85
2019-02-06T15:57:05.619Z,3.79
2019-02-06T16:00:05.268Z,3.73
2019-02-06T16:02:54.430Z,3.67
2019-02-06T16:05:29.237Z,3.56
2019-02-06T16:08:18.462Z,3.46
2019-02-06T16:11:00.191Z,3.40
2019-02-06T16:13:49.366Z,3.38
2019-02-06T16:16:43.277Z,3.32
2019-02-06T16:19:37.137Z,3.19
2019-02-06T16:22:27.867Z,3.08
2019-02-06T16:25:19.072Z,2.97
2019-02-06T16:27:51.923Z,2.88
2019-02-06T16:30:33.644Z,3.04
2019-02-06T16:33:09.162Z,3.23
2019-02-06T16:36:10.825Z,3.37
2019-02-06T16:38:49.609Z,3.55
2019-02-06T16:41:53.002Z,3.38
2019-02-06T16:44:23.983Z,3.23
2019-02-06T16:47:19.015Z,3.06
2019-02-06T16:49:58.202Z,2.78
2019-02-06T16:52:38.249Z,2.60
2019-02-06T16:55:16.925Z,2.40
2019-02-06T16:58:07.676Z,2.43
2019-02-06T17:00:43.573Z,2.31
2019-02-06T17:03:25.457Z,2.22
2019-02-06T17:06:11.921Z,2.13
2019-02-06T17:09:02.632Z,2.06
2019-02-06T17:12:04.163Z,1.97
2019-02-06T17:14:36.995Z,1.87
2019-02-06T17:17:15.412Z,1.83
2019-02-06T17:20:13.919Z,1.77
2019-02-06T17:23:05.150Z,1.77
2019-02-06T17:25:49.843Z,3.84
2019-02-06T17:28:28.646Z,3.11
2019-02-06T17:31:11.733Z,2.63
2019-02-06T17:33:47.860Z,2.32
2019-02-06T17:36:45.031Z,2.07
2019-02-06T17:39:37.082Z,1.89
2019-02-06T17:42:24.846Z,1.82
2019-02-06T17:45:23.301Z,1.73
2019-02-06T17:48:05.546Z,1.59
2019-02-06T17:51:01.366Z,1.42
2019-02-06T17:53:40.035Z,1.42
2019-02-06T17:56:09.903Z,1.78
2019-02-06T17:58:40.110Z,1.79
2019-02-06T18:01:19.552Z,1.61
2019-02-06T18:03:50.294Z,1.62
2019-02-06T18:06:20.104Z,1.43
2019-02-06T18:08:56.706Z,1.43
2019-02-06T18:11:22.469Z,1.27
2019-02-06T18:13:52.718Z,1.11
2019-02-06T18:16:23.191Z,1.05
2019-02-06T18:18:52.992Z,1.10
2019-02-06T18:21:22.974Z,1.17
2019-02-06T18:23:52.817Z,1.07
2019-02-06T18:26:24.905Z,0.96
2019-02-06T18:28:55.442Z,0.97
2019-02-06T18:31:25.215Z,1.15
2019-02-06T18:33:55.474Z,1.15
2019-02-06T18:36:25.284Z,1.02
2019-02-06T18:38:55.077Z,1.02
2019-02-06T18:41:25.342Z,1.17
2019-02-06T18:43:55.598Z,1.03
2019-02-06T18:46:25.556Z,0.95
2019-02-06T18:48:55.439Z,0.98
2019-02-06T18:51:25.303Z,3.59
2019-02-06T18:53:55.150Z,2.95
2019-02-06T18:56:25.453Z,2.30
2019-02-06T18:58:55.265Z,1.82
2019-02-06T19:01:25.583Z,1.50
2019-02-06T19:03:55.546Z,1.25
2019-02-06T19:06:25.808Z,1.03
2019-02-06T19:08:55.710Z,0.84
2019-02-06T19:11:25.529Z,0.79
2019-02-06T19:13:55.389Z,0.69
2019-02-06T19:16:25.840Z,0.63
2019-02-06T19:18:55.852Z,0.56
2019-02-06T19:21:27.659Z,0.47
2019-02-06T19:23:59.042Z,0.37
2019-02-06T19:26:29.362Z,0.16
2019-02-06T19:28:59.628Z,0.13
2019-02-06T19:31:32.547Z,0.11
2019-02-06T19:34:02.834Z,0.11
2019-02-06T19:36:32.750Z,0.14
2019-02-06T19:39:02.609Z,0.04
2019-02-06T19:41:32.986Z,-0.05
2019-02-06T19:44:02.906Z,-0.05
2019-02-06T19:46:32.874Z,-0.10
2019-02-06T19:49:03.672Z,-0.12
2019-02-06T19:51:33.572Z,-0.06
2019-02-06T19:54:03.875Z,-0.07
2019-02-06T19:56:33.787Z,-0.07
2019-02-06T19:59:03.899Z,-0.02
2019-02-06T20:01:34.174Z,-0.09
2019-02-06T20:04:04.755Z,-0.16
2019-02-06T20:06:35.507Z,-0.20
2019-02-06T20:09:07.243Z,-0.18
2019-02-06T20:11:37.204Z,-0.29
2019-02-06T20:14:07.571Z,-0.29
2019-02-06T20:16:37.667Z,-0.31
2019-02-06T20:19:08.943Z,1.45
2019-02-06T20:21:39.306Z,0.77
2019-02-06T20:24:10.832Z,0.77
2019-02-06T20:26:40.724Z,0.42
2019-02-06T20:29:11.475Z,0.16
2019-02-06T20:31:41.346Z,0.03
2019-02-06T20:34:11.377Z,-0.10
2019-02-06T20:36:41.788Z,-0.26
2019-02-06T20:39:11.740Z,-0.36
2019-02-06T20:41:41.728Z,-0.36
2019-02-06T20:44:12.142Z,-0.52
2019-02-06T20:46:42.088Z,-0.65
2019-02-06T20:49:12.468Z,-0.65
2019-02-06T20:51:43.569Z,-0.71
2019-02-06T20:54:13.745Z,-0.71
2019-02-06T20:56:44.165Z,-0.80
2019-02-06T20:59:14.095Z,-0.80
2019-02-06T21:01:44.370Z,-0.82
2019-02-06T21:04:15.438Z,-0.82
2019-02-06T21:06:45.781Z,-0.76
2019-02-06T21:09:16.211Z,-0.73
2019-02-06T21:11:46.066Z,-0.78
2019-02-06T21:14:15.905Z,-0.84
2019-02-06T21:16:45.714Z,-0.86
2019-02-06T21:19:15.535Z,-0.93
2019-02-06T21:21:45.350Z,-0.95
2019-02-06T21:24:15.174Z,-1.01
2019-02-06T21:26:44.962Z,-1.07
2019-02-06T21:29:14.801Z,-1.19
2019-02-06T21:31:44.640Z,-1.25
2019-02-06T21:34:14.488Z,-1.25
2019-02-06T21:36:44.399Z,-1.27
2019-02-06T21:39:14.224Z,-1.32
2019-02-06T21:41:44.995Z,-1.32
2019-02-06T21:44:14.968Z,-1.45
2019-02-06T21:46:44.781Z,-1.41
2019-02-06T21:49:14.546Z,-1.48
2019-02-06T21:51:44.769Z,-1.45
2019-02-06T21:54:14.696Z,-1.52
2019-02-06T21:56:44.486Z,-1.46
2019-02-06T21:59:15.327Z,-1.40
2019-02-06T22:01:45.100Z,-1.40
2019-02-06T22:04:14.900Z,-1.38
2019-02-06T22:06:45.014Z,-1.46
2019-02-06T22:09:14.826Z,-1.46
2019-02-06T22:11:45.681Z,-1.47
2019-02-06T22:14:15.389Z,-1.51
2019-02-06T22:16:45.267Z,-1.52
2019-02-06T22:19:15.316Z,-1.51
2019-02-06T22:21:45.072Z,-1.59
2019-02-06T22:24:14.839Z,-1.57
2019-02-06T22:26:44.637Z,-1.55
2019-02-06T22:29:14.342Z,-1.62
2019-02-06T22:31:44.168Z,-1.72
2019-02-06T22:34:14.215Z,-1.81
2019-02-06T22:36:44.061Z,-2.00
2019-02-06T22:39:13.854Z,-1.97
2019-02-06T22:41:43.660Z,-1.96
2019-02-06T22:44:13.439Z,-1.98
2019-02-06T22:46:43.232Z,-1.96
2019-02-06T22:49:13.281Z,-1.92
2019-02-06T22:51:43.091Z,-1.98
2019-02-06T22:54:12.890Z,-2.01
2019-02-06T22:56:42.694Z,-2.00
2019-02-06T22:59:12.480Z,-2.01
2019-02-06T23:01:42.693Z,-2.01
2019-02-06T23:04:12.576Z,-2.03
2019-02-06T23:06:42.374Z,-2.03
2019-02-06T23:09:12.286Z,-2.07
2019-02-06T23:11:42.068Z,-2.08
2019-02-06T23:14:17.528Z,-2.13
2019-02-06T23:16:43.361Z,-2.13
2019-02-06T23:19:13.077Z,-2.12
2019-02-06T23:21:42.888Z,-2.13
2019-02-06T23:24:12.608Z,-2.17
2019-02-06T23:26:42.419Z,-2.19
2019-02-06T23:29:12.242Z,-2.22
2019-02-06T23:31:42.176Z,-2.23
2019-02-06T23:34:12.063Z,-2.29
2019-02-06T23:36:41.913Z,-2.28
2019-02-06T23:39:14.089Z,-2.24
2019-02-06T23:41:44.054Z,-2.24
2019-02-06T23:44:14.290Z,-2.32
2019-02-06T23:46:44.087Z,-2.35
2019-02-06T23:49:13.954Z,-2.47
2019-02-06T23:51:43.726Z,-2.48
2019-02-06T23:54:16.305Z,-2.46
2019-02-06T23:56:46.098Z,-2.47
2019-02-06T23:59:15.975Z,-2.53
